Terminal Aerodrome Forecast
Issued by NWS

Home | Current Version | Previous Version | Text Only | Print | Product List | Glossary On
Versions: 1 2 3 4 5 6 7 8 9 10 11 12 13 14 15 16 17 18 19
000
FTUS43 KBIS 240800 AAB
TAFJMS
TAF AMD
KJMS 240809Z 2408/2506 17007KT P6SM SCT007 OVC011
      TEMPO 2408/2412 4SM BR BKN005
     FM241200 21005KT 5SM BR FEW012 SCT120 BKN180
     FM241400 28011KT P6SM FEW120
     FM241800 29016G23KT P6SM SCT090 SCT120
     FM242100 30017G23KT P6SM VCSH SCT070 BKN090
     FM250200 29006KT P6SM FEW080 SCT100=

USA.gov is the U.S. government's official web portal to all federal, state and local government web resources and services.